Time;durP1;ratioP1;P1;durP2;ratioP2;P2;SDS_P1;SDS_P2;PMS_P1;PMS_P2;Temp;Humidity;BMP_temperature;BMP_pressure;BME280_temperature;BME280_humidity;BME280_pressure;Samples;Min_cycle;Max_cycle;Signal;HPM_P1;HPM_P2
2023/01/19 00:00:48;;;;;;;6.18;3.12;;;;;;;11.03;65.83;98252.28;4247436;33;32417;-82
2023/01/19 00:03:16;;;;;;;5.82;2.95;;;;;;;10.92;66.17;98248.63;4260130;33;34027;-80
2023/01/19 00:05:44;;;;;;;4.95;2.33;;;;;;;11.17;64.68;98250.78;4260384;33;33937;-83
2023/01/19 00:08:14;;;;;;;4.85;2.20;;;;;;;11.05;65.58;98250.59;4259807;33;33622;-83
2023/01/19 00:10:44;;;;;;;4.55;2.53;;;;;;;10.94;65.75;98242.59;4260418;33;34745;-81
2023/01/19 00:13:13;;;;;;;4.03;1.75;;;;;;;11.53;63.47;98248.78;4260171;33;33207;-82
2023/01/19 00:15:40;;;;;;;4.40;1.95;;;;;;;12.01;62.55;98255.59;4260171;33;34656;-83
2023/01/19 00:18:08;;;;;;;3.70;2.00;;;;;;;12.36;60.59;98258.69;4259737;33;34711;-81
2023/01/19 00:20:38;;;;;;;4.68;1.80;;;;;;;11.93;61.64;98249.44;4259891;33;34569;-82
2023/01/19 00:23:06;;;;;;;3.78;1.80;;;;;;;12.25;60.87;98247.28;4258680;33;34100;-80
2023/01/19 00:25:41;;;;;;;3.95;1.90;;;;;;;12.93;58.74;98253.28;4259979;33;34548;-84
2023/01/19 00:28:13;;;;;;;4.28;2.05;;;;;;;12.74;59.10;98247.00;4259865;33;34124;-82
2023/01/19 00:30:42;;;;;;;4.65;2.20;;;;;;;12.27;59.50;98245.56;4258994;33;34027;-82
2023/01/19 00:33:12;;;;;;;3.72;2.12;;;;;;;11.53;62.38;98238.41;4259916;33;34212;-82
2023/01/19 00:35:43;;;;;;;7.18;3.05;;;;;;;11.92;61.46;98240.78;4260212;33;32969;-81
2023/01/19 00:38:11;;;;;;;5.47;2.67;;;;;;;12.46;59.52;98240.59;4259916;33;34151;-82
2023/01/19 00:40:38;;;;;;;4.70;2.22;;;;;;;12.34;58.65;98242.22;4247143;33;33833;-84
2023/01/19 00:43:06;;;;;;;5.20;2.60;;;;;;;12.81;56.36;98237.56;4246467;33;32929;-83
2023/01/19 00:45:34;;;;;;;5.10;2.75;;;;;;;11.07;62.33;98237.62;4260315;33;34018;-82
2023/01/19 00:48:01;;;;;;;4.90;2.50;;;;;;;11.61;61.62;98232.50;4253898;33;33539;-84
2023/01/19 00:50:30;;;;;;;3.78;2.12;;;;;;;11.54;61.57;98235.84;4259887;33;33725;-82
2023/01/19 00:52:59;;;;;;;4.62;2.33;;;;;;;11.42;62.43;98235.66;4246694;33;34353;-83
2023/01/19 00:55:29;;;;;;;3.97;2.20;;;;;;;12.54;58.55;98228.59;4258449;33;33664;-81
2023/01/19 00:57:57;;;;;;;3.92;1.75;;;;;;;12.20;59.78;98234.22;4258101;33;34486;-84
2023/01/19 01:00:25;;;;;;;3.95;1.62;;;;;;;11.66;61.39;98244.66;4258542;33;33898;-83
2023/01/19 01:02:52;;;;;;;3.30;1.67;;;;;;;11.23;62.52;98236.22;4246469;33;31939;-79
2023/01/19 01:05:21;;;;;;;2.87;1.52;;;;;;;11.76;60.70;98242.25;4255945;33;33589;-81
2023/01/19 01:07:49;;;;;;;2.85;1.50;;;;;;;11.02;62.96;98234.97;4259338;33;34640;-81
2023/01/19 01:10:23;;;;;;;3.22;1.60;;;;;;;11.63;61.24;98234.22;4258731;33;33924;-80
2023/01/19 01:12:50;;;;;;;3.05;1.58;;;;;;;12.05;59.85;98239.22;4259741;33;32960;-83
2023/01/19 01:15:25;;;;;;;2.78;1.30;;;;;;;11.65;60.44;98236.03;4259357;33;34443;-80
2023/01/19 01:17:54;;;;;;;2.87;1.50;;;;;;;12.31;58.35;98239.56;4259506;33;34110;-80
2023/01/19 01:20:26;;;;;;;3.00;1.50;;;;;;;12.37;58.34;98246.56;4259525;33;33622;-79
2023/01/19 01:22:55;;;;;;;3.85;1.50;;;;;;;12.68;57.51;98246.94;4258263;33;33921;-84
2023/01/19 01:25:24;;;;;;;3.65;1.48;;;;;;;12.70;57.15;98251.28;4259262;33;33873;-80
2023/01/19 01:27:52;;;;;;;2.47;1.30;;;;;;;11.95;59.22;98248.59;4255127;33;33797;-79
2023/01/19 01:30:20;;;;;;;2.55;1.58;;;;;;;10.87;63.23;98245.91;4257787;33;34175;-81
2023/01/19 01:32:48;;;;;;;2.20;1.10;;;;;;;10.93;63.80;98251.25;4256210;33;34156;-79
2023/01/19 01:35:16;;;;;;;2.40;1.10;;;;;;;11.90;60.18;98247.66;4246699;33;33828;-83
2023/01/19 01:37:43;;;;;;;2.85;1.33;;;;;;;12.40;57.96;98251.81;4260853;33;34024;-83
2023/01/19 01:40:17;;;;;;;2.75;1.20;;;;;;;12.29;58.48;98253.38;4260804;33;33706;-82
2023/01/19 01:42:45;;;;;;;1.77;0.80;;;;;;;13.14;56.26;98258.69;4260521;33;33150;-80
2023/01/19 01:45:28;;;;;;;2.03;0.70;;;;;;;11.94;58.25;98261.56;4261237;33;33587;-80
2023/01/19 01:48:03;;;;;;;1.48;0.68;;;;;;;10.56;63.37;98270.34;4260859;33;33441;-82
2023/01/19 01:50:33;;;;;;;1.67;0.70;;;;;;;11.35;60.12;98264.91;4247974;33;34617;-80
2023/01/19 01:53:08;;;;;;;1.85;0.60;;;;;;;11.37;60.17;98273.59;4265120;33;32844;-79
2023/01/19 01:55:40;;;;;;;0.93;0.50;;;;;;;10.57;61.99;98277.31;4257649;33;33778;-80
2023/01/19 01:58:09;;;;;;;1.23;0.40;;;;;;;10.45;63.43;98293.47;4245624;33;34225;-82
2023/01/19 02:03:25;;;;;;;1.75;0.70;;;;;;;11.91;57.77;98285.72;4250371;33;33138;-80
2023/01/19 02:05:56;;;;;;;2.15;0.60;;;;;;;11.29;58.56;98295.91;4261101;33;33637;-81
2023/01/19 02:14:04;;;;;;;2.37;0.90;;;;;;;10.40;62.60;98295.06;4259380;33;33861;-80
2023/01/19 02:16:32;;;;;;;1.67;0.70;;;;;;;8.16;70.92;98264.34;4236555;33;34123;-82
2023/01/19 02:19:00;;;;;;;0.60;0.40;;;;;;;7.23;75.02;98240.87;4260908;33;34699;-83
2023/01/19 02:21:36;;;;;;;1.85;0.50;;;;;;;8.78;69.23;98225.69;4248096;33;34443;-80
2023/01/19 02:24:06;;;;;;;1.33;0.50;;;;;;;8.68;67.73;98234.91;4261090;33;34487;-84
2023/01/19 02:26:42;;;;;;;1.02;0.50;;;;;;;8.07;70.75;98249.47;4252996;33;33542;-82
2023/01/19 02:29:16;;;;;;;1.60;0.50;;;;;;;6.98;74.46;98269.22;4260020;33;32642;-79
2023/01/19 02:31:44;;;;;;;1.33;0.60;;;;;;;6.64;76.48;98289.47;4260473;33;33869;-80
2023/01/19 02:34:14;;;;;;;1.75;0.82;;;;;;;6.68;76.74;98300.75;4247925;33;33499;-80
2023/01/19 02:37:06;;;;;;;2.53;0.70;;;;;;;8.61;69.63;98284.59;4259541;33;32649;-81
2023/01/19 02:39:44;;;;;;;1.08;0.60;;;;;;;7.00;76.57;98277.84;4260689;33;34537;-81
2023/01/19 02:42:22;;;;;;;1.62;0.65;;;;;;;8.19;71.66;98259.28;4245005;33;33434;-84
2023/01/19 02:44:52;;;;;;;1.05;0.52;;;;;;;6.95;75.06;98263.94;4247708;33;34023;-83
2023/01/19 02:47:20;;;;;;;1.45;0.52;;;;;;;8.88;69.06;98257.78;4235174;33;33814;-80
2023/01/19 02:49:57;;;;;;;1.02;0.57;;;;;;;9.91;63.68;98248.28;4260764;33;33873;-83
2023/01/19 02:52:26;;;;;;;1.60;0.55;;;;;;;9.81;64.93;98242.03;4259603;33;33285;-81
2023/01/19 02:55:05;;;;;;;1.80;0.70;;;;;;;10.12;62.49;98259.91;4247082;33;33723;-82
2023/01/19 02:57:55;;;;;;;0.80;0.55;;;;;;;10.49;61.32;98265.88;4260060;33;33971;-81
2023/01/19 03:00:44;;;;;;;1.02;0.40;;;;;;;8.57;67.34;98275.88;4238636;33;33860;-80
2023/01/19 03:03:26;;;;;;;1.35;0.50;;;;;;;10.48;60.93;98272.78;4255627;33;33746;-80
2023/01/19 03:06:22;;;;;;;1.08;0.60;;;;;;;7.41;71.77;98280.94;4247716;33;33511;-81
2023/01/19 03:08:55;;;;;;;;;;;;;;;9.12;67.28;98273.94;4248160;33;34349;-81
2023/01/19 03:11:24;;;;;;;1.20;0.43;;;;;;;7.42;73.85;98270.69;4233282;33;35017;-81
2023/01/19 03:13:55;;;;;;;2.00;0.60;;;;;;;7.26;74.23;98284.78;4258139;33;33854;-82
2023/01/19 03:16:29;;;;;;;1.58;0.57;;;;;;;6.84;76.35;98297.03;4247780;33;33380;-80
2023/01/19 03:19:05;;;;;;;1.65;0.50;;;;;;;6.95;76.07;98315.44;4259612;33;33747;-81
2023/01/19 03:21:35;;;;;;;0.50;0.30;;;;;;;6.50;78.74;98324.97;4256660;33;33912;-82
2023/01/19 03:24:05;;;;;;;0.32;0.28;;;;;;;6.05;80.22;98322.44;4259217;33;34438;-82
2023/01/19 03:26:37;;;;;;;0.82;0.32;;;;;;;5.92;82.11;98317.59;4247906;33;32719;-82
2023/01/19 03:29:06;;;;;;;1.15;0.50;;;;;;;7.82;74.60;98278.78;4260223;33;33922;-79
2023/01/19 03:31:33;;;;;;;1.62;0.40;;;;;;;6.37;78.89;98261.06;4263496;33;34059;-80
2023/01/19 03:34:05;;;;;;;1.30;0.73;;;;;;;7.06;76.45;98242.00;4247324;33;34503;-80
2023/01/19 03:36:45;;;;;;;2.45;0.98;;;;;;;6.40;81.06;98243.16;4257976;33;32925;-80
2023/01/19 03:39:17;;;;;;;1.25;0.60;;;;;;;5.32;85.38;98241.59;4247580;33;34475;-82
2023/01/19 03:41:47;;;;;;;1.08;0.47;;;;;;;5.77;84.82;98242.47;4260504;33;34632;-79
2023/01/19 03:44:15;;;;;;;1.25;0.57;;;;;;;6.24;81.91;98233.16;4260216;33;32886;-78
2023/01/19 03:46:44;;;;;;;1.33;0.62;;;;;;;5.49;83.98;98220.88;4260636;33;33918;-80
2023/01/19 03:49:12;;;;;;;1.85;0.32;;;;;;;7.01;79.49;98217.81;4260341;33;34483;-83
2023/01/19 03:51:40;;;;;;;1.45;0.47;;;;;;;7.01;76.05;98222.94;4259979;33;33900;-81
2023/01/19 03:54:09;;;;;;;1.45;0.43;;;;;;;6.52;79.00;98229.00;4247689;33;33915;-82
2023/01/19 03:56:37;;;;;;;1.02;0.32;;;;;;;7.67;74.81;98218.22;4259758;33;33922;-80
2023/01/19 03:59:04;;;;;;;1.67;0.40;;;;;;;6.88;76.63;98232.84;4259157;33;34010;-82
2023/01/19 04:01:32;;;;;;;1.12;0.47;;;;;;;5.20;85.35;98259.09;4257658;33;33940;-79
2023/01/19 04:04:00;;;;;;;1.85;0.70;;;;;;;5.40;84.51;98266.72;4252125;33;34668;-78
2023/01/19 04:06:27;;;;;;;3.08;1.25;;;;;;;5.40;85.05;98302.66;4259949;33;33364;-81
2023/01/19 04:08:55;;;;;;;1.60;0.80;;;;;;;5.11;87.00;98300.63;4260192;33;34427;-78
2023/01/19 04:11:22;;;;;;;2.12;1.02;;;;;;;5.64;83.99;98288.25;4259984;33;34485;-82
2023/01/19 04:13:50;;;;;;;3.45;1.27;;;;;;;5.58;84.13;98290.59;4260211;33;34872;-80
2023/01/19 04:16:19;;;;;;;2.97;1.25;;;;;;;5.15;85.43;98300.78;4260135;33;33555;-83
2023/01/19 04:18:48;;;;;;;2.05;1.30;;;;;;;6.53;80.37;98301.09;4260484;33;33886;-80
2023/01/19 04:21:16;;;;;;;5.35;1.45;;;;;;;5.96;81.19;98304.09;4256469;33;34243;-83
2023/01/19 04:23:44;;;;;;;5.40;1.40;;;;;;;5.47;84.00;98304.69;4258673;33;33964;-82
2023/01/19 04:26:12;;;;;;;4.07;1.62;;;;;;;5.08;86.42;98284.22;4260086;33;34077;-81
2023/01/19 04:28:40;;;;;;;5.87;1.50;;;;;;;6.74;79.98;98279.50;4260315;33;33507;-83
2023/01/19 04:31:09;;;;;;;3.67;1.75;;;;;;;5.23;85.18;98259.19;4260225;33;33647;-79
2023/01/19 04:33:37;;;;;;;3.50;1.20;;;;;;;6.46;80.90;98263.09;4247292;33;33780;-79
2023/01/19 04:36:04;;;;;;;3.20;1.33;;;;;;;5.15;84.96;98265.72;4247262;33;34384;-80
2023/01/19 04:38:32;;;;;;;2.62;1.23;;;;;;;6.85;77.31;98257.59;4260122;33;34601;-79
2023/01/19 04:41:00;;;;;;;4.62;2.30;;;;;;;7.72;71.58;98251.00;4260099;33;33969;-79
2023/01/19 04:43:27;;;;;;;4.87;2.25;;;;;;;9.39;65.68;98232.41;4259966;33;33934;-82
2023/01/19 04:45:55;;;;;;;1.08;0.50;;;;;;;8.28;68.90;98238.91;4258854;33;32864;-80
2023/01/19 04:48:23;;;;;;;0.70;0.30;;;;;;;9.36;63.76;98246.97;4260062;33;33992;-80
2023/01/19 04:50:51;;;;;;;0.73;0.30;;;;;;;8.85;65.00;98238.81;4260117;33;35279;-81
2023/01/19 04:53:18;;;;;;;1.10;0.47;;;;;;;9.05;64.11;98267.72;4259380;33;34481;-80
2023/01/19 04:55:46;;;;;;;1.52;0.70;;;;;;;8.02;68.96;98282.88;4245192;33;33356;-81
2023/01/19 04:58:14;;;;;;;1.83;0.60;;;;;;;5.84;78.02;98280.47;4246947;33;34516;-82
2023/01/19 05:00:42;;;;;;;1.02;0.50;;;;;;;6.05;76.89;98291.59;4259265;33;33854;-78
2023/01/19 05:03:10;;;;;;;3.28;0.80;;;;;;;5.98;77.17;98287.03;4259437;33;35021;-80
2023/01/19 05:05:37;;;;;;;0.90;0.45;;;;;;;5.13;81.91;98293.87;4258291;33;33544;-78
2023/01/19 05:08:05;;;;;;;1.15;0.65;;;;;;;4.91;83.17;98297.25;4259815;33;34261;-82
2023/01/19 05:10:32;;;;;;;1.60;0.50;;;;;;;8.24;69.99;98278.34;4260606;33;34603;-79
2023/01/19 05:13:00;;;;;;;1.37;0.40;;;;;;;8.73;66.12;98274.62;4260747;33;34346;-80
2023/01/19 05:15:28;;;;;;;0.37;0.20;;;;;;;8.68;65.82;98262.44;4247968;33;32836;-80
2023/01/19 05:17:56;;;;;;;0.25;0.15;;;;;;;9.79;60.65;98268.66;4260832;33;33458;-82
2023/01/19 05:20:24;;;;;;;1.50;0.20;;;;;;;8.67;63.51;98295.09;4261326;33;33673;-81
2023/01/19 05:22:52;;;;;;;1.45;0.17;;;;;;;8.76;62.97;98305.69;4260706;33;33840;-83
2023/01/19 05:25:20;;;;;;;0.20;0.10;;;;;;;8.39;63.67;98314.06;4260919;33;33192;-82
2023/01/19 05:27:47;;;;;;;0.57;0.20;;;;;;;9.27;61.42;98324.25;4247772;33;32328;-81
2023/01/19 05:30:15;;;;;;;0.40;0.20;;;;;;;8.42;63.82;98335.69;4260914;33;33742;-83
2023/01/19 05:32:43;;;;;;;1.30;0.50;;;;;;;8.08;65.57;98342.38;4259863;33;34574;-80
2023/01/19 05:35:12;;;;;;;3.33;0.98;;;;;;;6.71;71.06;98346.31;4260751;33;33156;-79
2023/01/19 05:37:39;;;;;;;2.00;0.77;;;;;;;6.85;72.49;98351.12;4248600;33;34565;-80
2023/01/19 05:40:08;;;;;;;1.55;0.40;;;;;;;7.46;69.98;98343.81;4247827;33;32493;-80
2023/01/19 05:42:36;;;;;;;1.42;0.40;;;;;;;10.07;60.42;98321.03;4261288;33;33342;-81
2023/01/19 05:45:04;;;;;;;2.87;0.60;;;;;;;8.82;62.27;98326.50;4260844;33;33870;-81
2023/01/19 05:47:32;;;;;;;2.75;0.95;;;;;;;9.40;62.08;98321.16;4261189;33;34509;-82
2023/01/19 05:50:00;;;;;;;2.72;1.12;;;;;;;8.07;67.12;98327.75;4260152;33;33757;-80
2023/01/19 05:52:27;;;;;;;2.65;1.02;;;;;;;8.49;67.26;98315.22;4260918;33;33826;-80
2023/01/19 05:54:55;;;;;;;2.25;0.77;;;;;;;9.02;63.93;98323.59;4259787;33;33671;-82
2023/01/19 05:57:22;;;;;;;1.20;0.50;;;;;;;6.44;73.40;98327.34;4261003;33;34547;-83
2023/01/19 05:59:50;;;;;;;1.48;0.65;;;;;;;9.12;63.27;98304.06;4260571;33;33828;-78
2023/01/19 06:02:18;;;;;;;2.33;0.70;;;;;;;9.16;62.94;98296.44;4260738;33;33574;-79
2023/01/19 06:04:46;;;;;;;1.80;0.60;;;;;;;8.11;66.64;98296.88;4260840;33;33029;-82
2023/01/19 06:07:14;;;;;;;3.05;1.17;;;;;;;8.24;66.16;98304.16;4247677;33;31776;-83
2023/01/19 06:09:41;;;;;;;1.83;0.95;;;;;;;8.49;66.19;98315.22;4260710;33;34586;-82
2023/01/19 06:12:09;;;;;;;1.87;0.80;;;;;;;8.41;65.70;98308.13;4259833;33;33790;-83
2023/01/19 06:14:37;;;;;;;2.08;0.70;;;;;;;7.60;68.91;98293.59;4260641;33;33357;-81
2023/01/19 06:17:05;;;;;;;3.20;1.02;;;;;;;7.07;70.62;98280.69;4261068;33;34629;-82
2023/01/19 06:19:33;;;;;;;2.97;1.10;;;;;;;7.24;70.70;98291.56;4258283;33;33718;-80
2023/01/19 06:22:01;;;;;;;3.12;1.25;;;;;;;6.96;71.51;98276.00;4260128;33;34149;-83
2023/01/19 06:24:29;;;;;;;3.58;1.37;;;;;;;6.78;72.75;98263.34;4260986;33;34119;-79
2023/01/19 06:26:56;;;;;;;1.62;0.90;;;;;;;6.03;75.74;98248.66;4258727;33;34574;-81
2023/01/19 06:29:24;;;;;;;3.92;1.17;;;;;;;6.17;75.47;98254.31;4261184;33;33980;-80
2023/01/19 06:31:52;;;;;;;3.65;1.40;;;;;;;6.14;75.84;98259.34;4260633;33;34542;-80
2023/01/19 06:34:20;;;;;;;3.45;1.30;;;;;;;6.49;74.56;98263.22;4260722;33;33312;-83
2023/01/19 06:36:47;;;;;;;3.12;1.52;;;;;;;6.93;72.43;98286.19;4254176;33;33868;-80
2023/01/19 06:39:15;;;;;;;5.35;2.45;;;;;;;6.82;73.28;98304.72;4256495;33;34698;-82
2023/01/19 06:41:42;;;;;;;5.50;2.50;;;;;;;6.36;75.24;98308.19;4255274;33;34195;-82
2023/01/19 06:44:10;;;;;;;5.87;2.90;;;;;;;6.56;74.43;98305.47;4255625;33;34404;-81
2023/01/19 06:46:37;;;;;;;6.40;3.58;;;;;;;6.80;73.80;98321.78;4254363;33;32892;-84
2023/01/19 06:49:05;;;;;;;6.28;3.72;;;;;;;6.67;74.17;98317.88;4256448;33;33766;-84
2023/01/19 06:51:33;;;;;;;6.35;3.30;;;;;;;7.29;72.12;98315.75;4255848;33;33830;-81
2023/01/19 06:54:00;;;;;;;7.03;3.92;;;;;;;6.53;74.68;98313.06;4256251;33;34483;-83
2023/01/19 06:56:28;;;;;;;7.65;3.42;;;;;;;6.09;76.57;98308.87;4256523;33;33872;-80
2023/01/19 06:58:56;;;;;;;7.32;3.45;;;;;;;6.21;75.79;98305.03;4256713;33;33330;-84
2023/01/19 07:01:23;;;;;;;8.27;5.03;;;;;;;5.81;78.10;98298.31;4255995;33;34892;-81
2023/01/19 07:03:51;;;;;;;10.50;5.78;;;;;;;6.22;76.85;98289.66;4256396;33;34008;-79
2023/01/19 07:06:19;;;;;;;10.13;5.93;;;;;;;5.32;80.44;98292.97;4256059;33;32825;-81
2023/01/19 07:08:47;;;;;;;10.93;5.12;;;;;;;6.23;76.23;98293.09;4256210;33;34375;-80
2023/01/19 07:11:14;;;;;;;8.77;5.10;;;;;;;6.71;74.61;98290.56;4256477;33;33657;-81
2023/01/19 07:13:57;;;;;;;8.52;4.45;;;;;;;6.11;77.59;98285.81;4258584;33;33021;-81
2023/01/19 07:16:24;;;;;;;10.32;5.75;;;;;;;6.27;76.18;98292.41;4244586;33;34508;-80
2023/01/19 07:18:52;;;;;;;8.85;4.60;;;;;;;6.13;77.93;98306.44;4258387;33;34577;-82
2023/01/19 07:21:20;;;;;;;9.60;5.65;;;;;;;7.11;72.93;98302.28;4257150;33;33259;-83
2023/01/19 07:23:50;;;;;;;8.65;5.20;;;;;;;7.26;71.98;98318.25;4246244;33;33210;-83
2023/01/19 07:26:20;;;;;;;10.23;4.87;;;;;;;7.63;71.38;98322.03;4234109;33;33561;-83
2023/01/19 07:28:47;;;;;;;8.43;5.30;;;;;;;7.55;70.67;98323.50;4235863;33;32551;-82
2023/01/19 07:31:16;;;;;;;9.55;5.20;;;;;;;6.44;74.66;98347.91;4247508;33;34245;-80
2023/01/19 07:33:44;;;;;;;11.52;5.43;;;;;;;7.61;70.36;98341.75;4259585;33;33687;-79
2023/01/19 07:36:12;;;;;;;9.77;5.72;;;;;;;8.40;67.76;98342.50;4259805;33;32374;-82
2023/01/19 07:38:40;;;;;;;8.88;4.97;;;;;;;7.85;70.14;98345.94;4243556;33;33997;-81
2023/01/19 07:41:08;;;;;;;8.75;4.93;;;;;;;8.87;65.52;98344.72;4255378;33;33814;-83
2023/01/19 07:43:36;;;;;;;8.18;4.70;;;;;;;9.46;64.46;98339.37;4247393;33;33169;-83
2023/01/19 07:46:05;;;;;;;8.27;4.53;;;;;;;9.81;62.12;98344.56;4257922;33;33521;-81
2023/01/19 07:48:33;;;;;;;9.52;5.05;;;;;;;9.18;64.01;98341.25;4246062;33;33592;-83
2023/01/19 07:51:07;;;;;;;9.38;4.87;;;;;;;7.68;68.26;98353.09;4257330;33;34375;-83
2023/01/19 07:53:38;;;;;;;11.10;4.97;;;;;;;7.81;69.82;98352.69;4256331;33;32531;-81
2023/01/19 07:56:06;;;;;;;9.77;5.18;;;;;;;9.64;64.24;98359.69;4259181;33;34496;-79
2023/01/19 07:58:34;;;;;;;8.95;5.05;;;;;;;9.73;61.41;98351.25;4259255;33;33913;-81
2023/01/19 08:01:10;;;;;;;8.13;4.32;;;;;;;9.36;62.78;98374.47;4259240;33;33656;-79
2023/01/19 08:03:38;;;;;;;11.30;5.75;;;;;;;9.83;61.62;98355.81;4258377;33;33478;-81
2023/01/19 08:06:06;;;;;;;11.32;5.20;;;;;;;7.60;69.75;98372.59;4260819;33;34623;-80
2023/01/19 08:08:34;;;;;;;9.85;5.95;;;;;;;9.28;64.69;98362.19;4260757;33;33681;-82
2023/01/19 08:11:02;;;;;;;9.95;5.97;;;;;;;10.14;62.38;98359.12;4249809;33;33909;-81
2023/01/19 08:13:29;;;;;;;12.18;6.28;;;;;;;9.71;61.92;98347.78;4257532;33;33260;-82
2023/01/19 08:15:57;;;;;;;14.18;6.10;;;;;;;9.90;61.34;98338.75;4246351;33;33122;-84
2023/01/19 08:18:24;;;;;;;13.82;6.97;;;;;;;9.74;62.67;98334.94;4259572;33;33668;-83
2023/01/19 08:20:52;;;;;;;13.38;7.07;;;;;;;10.20;61.11;98338.59;4258554;33;34703;-80
2023/01/19 08:23:19;;;;;;;14.63;7.37;;;;;;;11.39;56.60;98328.94;4254356;33;33806;-78
2023/01/19 08:25:47;;;;;;;14.73;7.43;;;;;;;10.70;58.35;98343.12;4255124;33;33989;-81
2023/01/19 08:28:16;;;;;;;16.30;8.30;;;;;;;9.62;61.81;98331.19;4259232;33;33966;-82
2023/01/19 08:30:43;;;;;;;13.35;7.87;;;;;;;10.21;61.43;98342.91;4255984;33;33884;-83
2023/01/19 08:33:12;;;;;;;16.10;8.95;;;;;;;11.01;57.54;98321.34;4257727;33;33487;-86
2023/01/19 08:35:41;;;;;;;16.33;8.95;;;;;;;11.51;56.74;98336.03;4246515;33;34097;-83
2023/01/19 08:38:09;;;;;;;18.17;10.30;;;;;;;10.02;60.82;98347.69;4260634;33;33898;-83
2023/01/19 08:40:38;;;;;;;16.50;9.95;;;;;;;11.07;57.89;98352.53;4257995;33;34057;-82
2023/01/19 08:43:08;;;;;;;17.52;11.05;;;;;;;11.11;57.31;98363.84;4260933;33;33717;-83
2023/01/19 08:45:37;;;;;;;17.05;11.20;;;;;;;9.55;61.14;98365.47;4247162;33;35770;-81
2023/01/19 08:48:05;;;;;;;20.60;12.57;;;;;;;8.76;65.17;98364.19;4260967;33;34645;-81
2023/01/19 08:50:33;;;;;;;41.00;20.58;;;;;;;9.60;62.89;98358.72;4259730;33;33084;-82
2023/01/19 08:53:03;;;;;;;16.75;9.85;;;;;;;9.30;64.70;98363.97;4260995;33;33121;-83
2023/01/19 08:55:32;;;;;;;19.20;11.57;;;;;;;9.12;64.38;98366.94;4260624;33;34065;-81
2023/01/19 08:58:02;;;;;;;18.20;10.27;;;;;;;8.73;64.51;98356.34;4249950;33;34053;-81
2023/01/19 09:00:33;;;;;;;20.25;11.12;;;;;;;8.63;66.92;98357.78;4249081;33;34882;-81
2023/01/19 09:03:01;;;;;;;19.05;10.15;;;;;;;8.38;67.64;98363.88;4258363;33;34274;-83
2023/01/19 09:05:34;;;;;;;16.62;9.50;;;;;;;8.55;66.89;98357.56;4258440;33;33912;-80
2023/01/19 09:08:09;;;;;;;20.88;12.40;;;;;;;7.70;71.00;98355.75;4247008;33;34712;-80
2023/01/19 09:10:37;;;;;;;22.75;12.93;;;;;;;6.78;72.87;98364.63;4250482;33;33807;-80
2023/01/19 09:13:08;;;;;;;19.75;11.05;;;;;;;8.02;69.06;98360.22;4260233;33;34288;-81
2023/01/19 09:15:37;;;;;;;19.60;11.27;;;;;;;9.25;65.54;98374.19;4260717;33;33375;-82
2023/01/19 09:18:12;;;;;;;22.65;12.85;;;;;;;7.35;72.47;98384.66;4259902;33;35342;-79
2023/01/19 09:20:41;;;;;;;28.17;14.95;;;;;;;7.97;69.87;98389.28;4260258;33;33406;-79
2023/01/19 09:23:10;;;;;;;18.02;11.55;;;;;;;7.91;68.71;98389.94;4258638;33;32263;-78
2023/01/19 09:25:38;;;;;;;21.08;11.50;;;;;;;7.89;71.48;98376.13;4247471;33;33921;-78
2023/01/19 09:28:08;;;;;;;17.20;10.35;;;;;;;8.92;65.88;98373.25;4260375;33;34105;-80
2023/01/19 09:30:37;;;;;;;15.27;9.00;;;;;;;8.08;68.46;98367.28;4260712;33;32528;-80
2023/01/19 09:33:06;;;;;;;14.63;8.77;;;;;;;7.96;68.55;98360.03;4262754;33;34178;-81
2023/01/19 09:35:34;;;;;;;16.58;9.02;;;;;;;7.87;70.17;98370.06;4259781;33;33730;-81
2023/01/19 09:38:01;;;;;;;17.12;10.55;;;;;;;8.41;67.28;98379.47;4240231;33;33921;-79
2023/01/19 09:40:30;;;;;;;18.52;10.80;;;;;;;7.98;69.96;98373.84;4254018;33;34433;-81
2023/01/19 09:43:13;;;;;;;16.40;9.02;;;;;;;8.49;66.92;98364.25;4260286;33;33604;-82
2023/01/19 09:45:50;;;;;;;18.30;10.50;;;;;;;7.02;71.91;98368.88;4261124;33;33437;-80
2023/01/19 09:48:27;;;;;;;18.17;10.70;;;;;;;7.89;70.15;98368.41;4248232;33;33902;-81
2023/01/19 09:50:56;;;;;;;17.10;9.50;;;;;;;8.52;67.87;98362.66;4259619;33;33932;-81
2023/01/19 09:53:44;;;;;;;16.87;9.88;;;;;;;8.13;68.12;98370.91;4245990;33;33393;-80
2023/01/19 09:56:14;;;;;;;19.55;10.38;;;;;;;7.62;68.98;98371.81;4258335;33;33799;-81
2023/01/19 09:58:42;;;;;;;20.83;11.90;;;;;;;6.84;71.70;98385.44;4245935;33;33911;-79
2023/01/19 10:01:32;;;;;;;23.77;12.52;;;;;;;7.05;71.86;98387.91;4258385;33;34192;-79
2023/01/19 10:04:17;;;;;;;20.17;10.68;;;;;;;7.61;70.05;98380.38;4256550;33;33486;-82
2023/01/19 10:06:46;;;;;;;19.40;12.18;;;;;;;6.85;71.37;98391.44;4256318;33;34014;-82
2023/01/19 10:09:26;;;;;;;20.98;12.55;;;;;;;6.43;74.42;98397.62;4244714;33;33848;-80
2023/01/19 10:11:59;;;;;;;18.70;10.30;;;;;;;7.16;71.67;98392.53;4244860;33;33855;-80
2023/01/19 10:14:51;;;;;;;19.17;10.77;;;;;;;6.56;73.36;98392.94;4256415;33;33597;-79
2023/01/19 10:17:37;;;;;;;19.45;11.38;;;;;;;5.86;75.72;98387.63;4227757;33;35017;-81
2023/01/19 10:20:13;;;;;;;20.27;12.70;;;;;;;5.91;75.91;98383.56;4241889;33;33498;-81
2023/01/19 10:22:48;;;;;;;23.00;12.32;;;;;;;6.03;75.09;98384.91;4232270;33;33630;-82
2023/01/19 10:25:19;;;;;;;16.00;9.93;;;;;;;6.62;73.88;98385.44;4245161;33;33329;-82
2023/01/19 10:27:47;;;;;;;20.80;11.70;;;;;;;6.53;72.65;98387.66;4247207;33;33383;-84
2023/01/19 10:30:23;;;;;;;21.85;12.27;;;;;;;6.14;74.20;98398.16;4263759;33;34524;-85
2023/01/19 10:32:51;;;;;;;19.65;12.00;;;;;;;6.43;73.51;98397.62;4248614;33;34464;-81
2023/01/19 10:35:23;;;;;;;18.00;10.27;;;;;;;7.09;70.83;98389.75;4247799;33;33549;-83
2023/01/19 10:38:01;;;;;;;19.12;10.48;;;;;;;7.31;69.30;98393.09;4260412;33;33110;-85
2023/01/19 10:41:05;;;;;;;20.77;11.65;;;;;;;6.27;73.87;98395.25;4262079;33;32809;-81
2023/01/19 10:43:32;;;;;;;22.98;11.30;;;;;;;6.02;74.60;98408.84;4246515;33;33315;-81
2023/01/19 10:46:04;;;;;;;22.60;12.52;;;;;;;6.29;74.03;98409.06;4258916;33;33999;-81
2023/01/19 10:48:38;;;;;;;24.20;13.23;;;;;;;6.01;74.27;98415.69;4254816;33;34457;-82
2023/01/19 10:51:05;;;;;;;24.15;12.75;;;;;;;6.10;74.49;98408.34;4248445;33;34635;-82
2023/01/19 10:53:33;;;;;;;23.15;12.73;;;;;;;6.19;74.06;98407.81;4261028;33;33604;-83
2023/01/19 10:56:16;;;;;;;22.15;12.75;;;;;;;6.21;74.12;98413.88;4257776;33;34539;-84
2023/01/19 10:58:43;;;;;;;23.60;12.15;;;;;;;6.07;75.59;98420.19;4242949;33;34099;-80
2023/01/19 11:01:25;;;;;;;23.15;13.10;;;;;;;6.92;71.10;98413.16;4259590;33;34426;-80
2023/01/19 11:03:55;;;;;;;23.75;12.10;;;;;;;7.39;69.33;98426.84;4257013;33;34481;-82
2023/01/19 11:06:26;;;;;;;25.52;12.98;;;;;;;7.03;69.68;98427.25;4226423;33;33603;-80
2023/01/19 11:09:19;;;;;;;20.88;12.05;;;;;;;6.55;72.00;98412.66;4259868;33;34079;-80
2023/01/19 11:11:49;;;;;;;21.70;12.13;;;;;;;6.73;72.20;98415.03;4247365;33;34329;-81
2023/01/19 11:14:19;;;;;;;23.67;13.82;;;;;;;6.55;72.55;98406.59;4257996;33;33019;-82
2023/01/19 11:16:52;;;;;;;19.73;11.50;;;;;;;6.58;72.85;98411.88;4260417;33;32661;-80
2023/01/19 11:19:29;;;;;;;20.83;12.45;;;;;;;6.38;72.83;98401.69;4262817;33;34662;-82
2023/01/19 11:22:20;;;;;;;19.73;10.40;;;;;;;6.04;74.32;98408.06;4247182;33;33784;-81
2023/01/19 11:24:48;;;;;;;24.27;13.85;;;;;;;5.53;76.28;98399.09;4260258;33;34069;-82
2023/01/19 11:27:17;;;;;;;23.25;13.15;;;;;;;5.63;76.65;98404.66;4257923;33;33650;-79
2023/01/19 11:29:47;;;;;;;24.67;13.62;;;;;;;5.56;77.92;98407.78;4259402;33;34034;-82
2023/01/19 11:32:21;;;;;;;23.87;13.52;;;;;;;6.19;75.13;98409.50;4249693;33;33706;-79
2023/01/19 11:34:49;;;;;;;31.17;14.50;;;;;;;5.69;76.57;98420.31;4259961;33;33844;-82
2023/01/19 11:37:16;;;;;;;28.17;15.55;;;;;;;5.99;75.64;98419.88;4247722;33;33564;-79
2023/01/19 11:39:46;;;;;;;23.77;13.18;;;;;;;5.54;77.94;98411.97;4259926;33;34103;-81
2023/01/19 11:42:14;;;;;;;24.73;13.52;;;;;;;5.90;76.58;98414.31;4259363;33;33919;-81
2023/01/19 11:44:47;;;;;;;22.08;12.30;;;;;;;6.31;75.71;98417.69;4246738;33;33542;-82
2023/01/19 11:47:27;;;;;;;21.75;10.57;;;;;;;5.27;79.77;98417.72;4245555;33;34137;-79
2023/01/19 11:49:54;;;;;;;21.30;10.93;;;;;;;5.10;79.93;98416.09;4244456;33;33910;-83
2023/01/19 11:52:52;;;;;;;23.83;11.52;;;;;;;5.48;79.58;98419.41;4259593;33;33989;-81
2023/01/19 11:55:47;;;;;;;22.95;13.00;;;;;;;5.17;79.91;98418.09;4245035;33;34403;-82
2023/01/19 11:58:16;;;;;;;23.80;13.07;;;;;;;5.75;78.39;98427.41;4252837;33;33937;-83